sensor_id;sensor_type;location;lat;lon;timestamp;pressure;altitude;pressure_sealevel;temperature;humidity
40117;BME280;25829;50.228;18.936;2024-01-25T00:02:38;98368.13;;;5.48;68.23
40117;BME280;25829;50.228;18.936;2024-01-25T00:05:38;98365.50;;;5.48;68.04
40117;BME280;25829;50.228;18.936;2024-01-25T00:08:39;98365.50;;;5.48;67.75
40117;BME280;25829;50.228;18.936;2024-01-25T00:11:40;98362.06;;;5.48;67.03
40117;BME280;25829;50.228;18.936;2024-01-25T00:14:41;98364.34;;;5.51;67.39
40117;BME280;25829;50.228;18.936;2024-01-25T00:17:41;98366.16;;;5.50;67.05
40117;BME280;25829;50.228;18.936;2024-01-25T00:20:42;98364.81;;;5.54;67.07
40117;BME280;25829;50.228;18.936;2024-01-25T00:23:43;98374.06;;;5.57;66.55
40117;BME280;25829;50.228;18.936;2024-01-25T00:26:43;98371.66;;;5.55;66.82
40117;BME280;25829;50.228;18.936;2024-01-25T00:29:44;98377.69;;;5.56;66.31
40117;BME280;25829;50.228;18.936;2024-01-25T00:32:45;98373.56;;;5.62;66.27
40117;BME280;25829;50.228;18.936;2024-01-25T00:35:46;98374.38;;;5.62;65.91
40117;BME280;25829;50.228;18.936;2024-01-25T00:38:47;98378.78;;;5.62;66.41
40117;BME280;25829;50.228;18.936;2024-01-25T00:41:50;98386.28;;;5.65;65.75
40117;BME280;25829;50.228;18.936;2024-01-25T00:44:52;98377.44;;;5.66;65.96
40117;BME280;25829;50.228;18.936;2024-01-25T00:47:53;98394.59;;;5.68;65.90
40117;BME280;25829;50.228;18.936;2024-01-25T00:50:54;98400.66;;;5.69;65.93
40117;BME280;25829;50.228;18.936;2024-01-25T00:53:55;98404.88;;;5.70;65.71
40117;BME280;25829;50.228;18.936;2024-01-25T00:56:56;98408.50;;;5.69;66.00
40117;BME280;25829;50.228;18.936;2024-01-25T00:59:58;98399.84;;;5.68;65.67
40117;BME280;25829;50.228;18.936;2024-01-25T01:03:02;98408.84;;;5.66;65.47
40117;BME280;25829;50.228;18.936;2024-01-25T01:06:05;98400.81;;;5.67;65.47
40117;BME280;25829;50.228;18.936;2024-01-25T01:09:05;98398.38;;;5.66;65.10
40117;BME280;25829;50.228;18.936;2024-01-25T01:12:07;98391.53;;;5.65;65.30
40117;BME280;25829;50.228;18.936;2024-01-25T01:15:08;98389.53;;;5.67;66.00
40117;BME280;25829;50.228;18.936;2024-01-25T01:18:08;98394.75;;;5.67;65.39
40117;BME280;25829;50.228;18.936;2024-01-25T01:21:09;98407.03;;;5.66;65.00
40117;BME280;25829;50.228;18.936;2024-01-25T01:24:10;98396.75;;;5.65;65.61
40117;BME280;25829;50.228;18.936;2024-01-25T01:27:11;98391.53;;;5.65;65.12
40117;BME280;25829;50.228;18.936;2024-01-25T01:30:12;98390.72;;;5.64;65.73
40117;BME280;25829;50.228;18.936;2024-01-25T01:33:13;98393.97;;;5.66;65.24
40117;BME280;25829;50.228;18.936;2024-01-25T01:36:13;98401.00;;;5.66;64.71
40117;BME280;25829;50.228;18.936;2024-01-25T01:39:14;98381.69;;;5.67;64.83
40117;BME280;25829;50.228;18.936;2024-01-25T01:42:15;98393.78;;;5.68;64.76
40117;BME280;25829;50.228;18.936;2024-01-25T01:45:16;98394.97;;;5.65;65.08
40117;BME280;25829;50.228;18.936;2024-01-25T01:48:17;98388.91;;;5.65;64.44
40117;BME280;25829;50.228;18.936;2024-01-25T01:51:17;98393.50;;;5.63;64.88
40117;BME280;25829;50.228;18.936;2024-01-25T01:54:19;98386.00;;;5.59;64.49
40117;BME280;25829;50.228;18.936;2024-01-25T01:57:19;98388.81;;;5.58;64.34
40117;BME280;25829;50.228;18.936;2024-01-25T02:00:20;98387.81;;;5.59;63.84
40117;BME280;25829;50.228;18.936;2024-01-25T02:03:21;98389.25;;;5.62;64.70
40117;BME280;25829;50.228;18.936;2024-01-25T02:06:25;98387.28;;;5.64;64.57
40117;BME280;25829;50.228;18.936;2024-01-25T02:09:26;98393.34;;;5.64;64.60
40117;BME280;25829;50.228;18.936;2024-01-25T02:12:26;98403.63;;;5.66;64.54
40117;BME280;25829;50.228;18.936;2024-01-25T02:15:27;98391.69;;;5.63;64.08
40117;BME280;25829;50.228;18.936;2024-01-25T02:18:28;98381.41;;;5.62;64.12
40117;BME280;25829;50.228;18.936;2024-01-25T02:21:29;98394.31;;;5.63;64.20
40117;BME280;25829;50.228;18.936;2024-01-25T02:24:30;98382.41;;;5.60;63.97
40117;BME280;25829;50.228;18.936;2024-01-25T02:27:31;98379.78;;;5.60;64.33
40117;BME280;25829;50.228;18.936;2024-01-25T02:30:31;98370.13;;;5.61;63.94
40117;BME280;25829;50.228;18.936;2024-01-25T02:33:32;98373.09;;;5.58;63.73
40117;BME280;25829;50.228;18.936;2024-01-25T02:36:33;98369.03;;;5.55;63.40
40117;BME280;25829;50.228;18.936;2024-01-25T02:39:34;98368.56;;;5.52;63.37
40117;BME280;25829;50.228;18.936;2024-01-25T02:42:34;98378.59;;;5.48;62.83
40117;BME280;25829;50.228;18.936;2024-01-25T02:45:35;98368.47;;;5.45;62.24
40117;BME280;25829;50.228;18.936;2024-01-25T02:48:36;98356.84;;;5.48;62.29
40117;BME280;25829;50.228;18.936;2024-01-25T02:51:36;98361.72;;;5.51;62.02
40117;BME280;25829;50.228;18.936;2024-01-25T02:54:37;98375.25;;;5.54;60.87
40117;BME280;25829;50.228;18.936;2024-01-25T02:57:38;98361.53;;;5.52;60.91
40117;BME280;25829;50.228;18.936;2024-01-25T03:00:39;98369.38;;;5.52;60.37
40117;BME280;25829;50.228;18.936;2024-01-25T03:03:39;98369.03;;;5.55;60.66
40117;BME280;25829;50.228;18.936;2024-01-25T03:06:40;98366.88;;;5.59;60.97
40117;BME280;25829;50.228;18.936;2024-01-25T03:09:41;98382.41;;;5.60;60.85
40117;BME280;25829;50.228;18.936;2024-01-25T03:12:41;98385.03;;;5.60;60.55
40117;BME280;25829;50.228;18.936;2024-01-25T03:15:43;98382.94;;;5.56;60.82
40117;BME280;25829;50.228;18.936;2024-01-25T03:18:44;98384.72;;;5.55;61.16
40117;BME280;25829;50.228;18.936;2024-01-25T03:21:45;98365.31;;;5.50;60.29
40117;BME280;25829;50.228;18.936;2024-01-25T03:24:45;98387.59;;;5.46;60.13
40117;BME280;25829;50.228;18.936;2024-01-25T03:27:47;98392.47;;;5.49;59.42
40117;BME280;25829;50.228;18.936;2024-01-25T03:30:47;98388.69;;;5.51;59.82
40117;BME280;25829;50.228;18.936;2024-01-25T03:33:48;98392.13;;;5.52;59.74
40117;BME280;25829;50.228;18.936;2024-01-25T03:36:49;98394.75;;;5.52;59.84
40117;BME280;25829;50.228;18.936;2024-01-25T03:39:52;98403.41;;;5.52;60.03
40117;BME280;25829;50.228;18.936;2024-01-25T03:42:53;98403.41;;;5.52;59.86
40117;BME280;25829;50.228;18.936;2024-01-25T03:45:54;98394.09;;;5.50;60.07
40117;BME280;25829;50.228;18.936;2024-01-25T03:48:54;98390.03;;;5.47;60.20
40117;BME280;25829;50.228;18.936;2024-01-25T03:51:55;98387.59;;;5.46;60.10
40117;BME280;25829;50.228;18.936;2024-01-25T03:54:56;98407.09;;;5.43;60.37
40117;BME280;25829;50.228;18.936;2024-01-25T03:57:57;98396.78;;;5.42;60.41
40117;BME280;25829;50.228;18.936;2024-01-25T04:00:57;98396.97;;;5.40;59.80
40117;BME280;25829;50.228;18.936;2024-01-25T04:03:58;98396.31;;;5.38;60.20
40117;BME280;25829;50.228;18.936;2024-01-25T04:06:59;98400.56;;;5.39;60.16
40117;BME280;25829;50.228;18.936;2024-01-25T04:10:00;98396.44;;;5.45;60.23
40117;BME280;25829;50.228;18.936;2024-01-25T04:13:00;98389.25;;;5.47;60.59
40117;BME280;25829;50.228;18.936;2024-01-25T04:16:02;98407.19;;;5.50;60.91
40117;BME280;25829;50.228;18.936;2024-01-25T04:19:03;98399.50;;;5.48;60.80
40117;BME280;25829;50.228;18.936;2024-01-25T04:22:03;98398.88;;;5.46;61.60
40117;BME280;25829;50.228;18.936;2024-01-25T04:25:04;98393.16;;;5.43;61.29
40117;BME280;25829;50.228;18.936;2024-01-25T04:28:05;98395.63;;;5.44;62.09
40117;BME280;25829;50.228;18.936;2024-01-25T04:31:06;98394.06;;;5.35;61.96
40117;BME280;25829;50.228;18.936;2024-01-25T04:34:07;98390.34;;;5.29;62.40
40117;BME280;25829;50.228;18.936;2024-01-25T04:37:08;98389.72;;;5.27;62.68
40117;BME280;25829;50.228;18.936;2024-01-25T04:40:09;98389.25;;;5.24;62.66
40117;BME280;25829;50.228;18.936;2024-01-25T04:43:09;98380.41;;;5.25;63.20
40117;BME280;25829;50.228;18.936;2024-01-25T04:46:12;98378.94;;;5.22;63.66
40117;BME280;25829;50.228;18.936;2024-01-25T04:49:12;98386.16;;;5.20;63.14
40117;BME280;25829;50.228;18.936;2024-01-25T04:52:13;98379.13;;;5.21;62.92
40117;BME280;25829;50.228;18.936;2024-01-25T04:55:14;98386.97;;;5.21;63.66
40117;BME280;25829;50.228;18.936;2024-01-25T04:58:14;98398.94;;;5.15;63.10
40117;BME280;25829;50.228;18.936;2024-01-25T05:01:15;98390.28;;;5.15;63.74
40117;BME280;25829;50.228;18.936;2024-01-25T05:04:16;98377.84;;;5.17;63.68
40117;BME280;25829;50.228;18.936;2024-01-25T05:07:17;98370.34;;;5.13;63.21
40117;BME280;25829;50.228;18.936;2024-01-25T05:10:17;98366.94;;;5.13;63.47
40117;BME280;25829;50.228;18.936;2024-01-25T05:13:18;98356.28;;;5.15;63.51
40117;BME280;25829;50.228;18.936;2024-01-25T05:16:19;98354.31;;;5.17;63.59
40117;BME280;25829;50.228;18.936;2024-01-25T05:19:22;98351.88;;;5.15;63.09
40117;BME280;25829;50.228;18.936;2024-01-25T05:22:23;98361.34;;;5.16;63.58
40117;BME280;25829;50.228;18.936;2024-01-25T05:25:24;98359.91;;;5.13;62.82
40117;BME280;25829;50.228;18.936;2024-01-25T05:28:26;98377.19;;;5.15;63.25
40117;BME280;25829;50.228;18.936;2024-01-25T05:31:27;98377.19;;;5.15;62.86
40117;BME280;25829;50.228;18.936;2024-01-25T05:34:27;98382.44;;;5.15;62.50
40117;BME280;25829;50.228;18.936;2024-01-25T05:37:28;98377.38;;;5.13;63.39
40117;BME280;25829;50.228;18.936;2024-01-25T05:40:29;98390.00;;;5.09;62.48
40117;BME280;25829;50.228;18.936;2024-01-25T05:43:30;98375.94;;;5.10;62.87
40117;BME280;25829;50.228;18.936;2024-01-25T05:46:30;98378.38;;;5.12;63.51
40117;BME280;25829;50.228;18.936;2024-01-25T05:49:31;98374.13;;;5.11;63.29
40117;BME280;25829;50.228;18.936;2024-01-25T05:52:32;98364.81;;;5.08;63.51
40117;BME280;25829;50.228;18.936;2024-01-25T05:55:34;98370.25;;;5.07;63.75
40117;BME280;25829;50.228;18.936;2024-01-25T05:58:34;98359.59;;;5.08;63.67
40117;BME280;25829;50.228;18.936;2024-01-25T06:01:35;98357.97;;;5.07;63.81
40117;BME280;25829;50.228;18.936;2024-01-25T06:04:36;98363.19;;;5.07;63.88
40117;BME280;25829;50.228;18.936;2024-01-25T06:07:37;98355.69;;;5.04;63.95
40117;BME280;25829;50.228;18.936;2024-01-25T06:10:38;98358.97;;;5.06;64.01
40117;BME280;25829;50.228;18.936;2024-01-25T06:13:40;98355.34;;;5.07;64.16
40117;BME280;25829;50.228;18.936;2024-01-25T06:16:40;98361.41;;;5.08;64.20
40117;BME280;25829;50.228;18.936;2024-01-25T06:19:41;98363.19;;;5.07;64.37
40117;BME280;25829;50.228;18.936;2024-01-25T06:22:42;98367.44;;;5.08;64.11
40117;BME280;25829;50.228;18.936;2024-01-25T06:25:42;98366.47;;;5.09;64.40
40117;BME280;25829;50.228;18.936;2024-01-25T06:28:43;98364.19;;;5.06;63.51
40117;BME280;25829;50.228;18.936;2024-01-25T06:31:45;98360.31;;;5.02;63.87
40117;BME280;25829;50.228;18.936;2024-01-25T06:34:45;98374.22;;;4.95;64.17
40117;BME280;25829;50.228;18.936;2024-01-25T06:37:46;98368.84;;;4.96;63.75
40117;BME280;25829;50.228;18.936;2024-01-25T06:40:47;98375.69;;;4.97;64.09
40117;BME280;25829;50.228;18.936;2024-01-25T06:43:47;98389.41;;;4.99;64.25
40117;BME280;25829;50.228;18.936;2024-01-25T06:46:49;98384.19;;;4.99;64.07
40117;BME280;25829;50.228;18.936;2024-01-25T06:49:50;98399.88;;;4.99;63.89
40117;BME280;25829;50.228;18.936;2024-01-25T06:52:52;98398.72;;;5.02;64.06
40117;BME280;25829;50.228;18.936;2024-01-25T06:55:54;98397.72;;;5.03;64.39
40117;BME280;25829;50.228;18.936;2024-01-25T06:58:55;98392.31;;;5.04;64.19
40117;BME280;25829;50.228;18.936;2024-01-25T07:01:55;98396.91;;;5.02;64.39
40117;BME280;25829;50.228;18.936;2024-01-25T07:04:56;98400.03;;;4.98;65.27
40117;BME280;25829;50.228;18.936;2024-01-25T07:07:57;98405.25;;;4.98;65.42
40117;BME280;25829;50.228;18.936;2024-01-25T07:10:58;98414.44;;;4.94;65.04
40117;BME280;25829;50.228;18.936;2024-01-25T07:14:01;98419.66;;;4.94;65.91
40117;BME280;25829;50.228;18.936;2024-01-25T07:17:02;98409.56;;;4.91;65.96
40117;BME280;25829;50.228;18.936;2024-01-25T07:20:03;98416.13;;;4.86;65.11
40117;BME280;25829;50.228;18.936;2024-01-25T07:23:04;98416.91;;;4.87;65.28
40117;BME280;25829;50.228;18.936;2024-01-25T07:26:05;98422.16;;;4.87;64.71
40117;BME280;25829;50.228;18.936;2024-01-25T07:29:05;98427.69;;;4.92;64.63
40117;BME280;25829;50.228;18.936;2024-01-25T07:32:06;98429.31;;;4.93;64.34
40117;BME280;25829;50.228;18.936;2024-01-25T07:35:08;98429.97;;;4.95;64.45
40117;BME280;25829;50.228;18.936;2024-01-25T07:38:12;98440.09;;;4.98;64.39
40117;BME280;25829;50.228;18.936;2024-01-25T07:41:14;98451.81;;;5.02;64.14
40117;BME280;25829;50.228;18.936;2024-01-25T07:44:14;98447.41;;;5.03;63.79
40117;BME280;25829;50.228;18.936;2024-01-25T07:47:15;98445.25;;;5.06;63.65
40117;BME280;25829;50.228;18.936;2024-01-25T07:50:16;98434.47;;;5.09;63.63
40117;BME280;25829;50.228;18.936;2024-01-25T07:53:17;98445.53;;;5.11;63.00
40117;BME280;25829;50.228;18.936;2024-01-25T07:56:18;98447.00;;;5.14;63.22
40117;BME280;25829;50.228;18.936;2024-01-25T07:59:20;98455.97;;;5.20;63.36
40117;BME280;25829;50.228;18.936;2024-01-25T08:02:21;98453.16;;;5.21;63.21
40117;BME280;25829;50.228;18.936;2024-01-25T08:05:21;98445.50;;;5.20;63.50
40117;BME280;25829;50.228;18.936;2024-01-25T08:08:22;98455.78;;;5.21;63.46
40117;BME280;25829;50.228;18.936;2024-01-25T08:11:24;98468.69;;;5.23;63.11
40117;BME280;25829;50.228;18.936;2024-01-25T08:14:25;98475.22;;;5.27;62.81
40117;BME280;25829;50.228;18.936;2024-01-25T08:17:26;98454.91;;;5.29;62.98
40117;BME280;25829;50.228;18.936;2024-01-25T08:20:28;98469.97;;;5.27;62.64
40117;BME280;25829;50.228;18.936;2024-01-25T08:23:29;98485.22;;;5.23;62.84
40117;BME280;25829;50.228;18.936;2024-01-25T08:26:29;98469.31;;;5.25;62.72
40117;BME280;25829;50.228;18.936;2024-01-25T08:29:30;98473.41;;;5.27;62.85
40117;BME280;25829;50.228;18.936;2024-01-25T08:32:31;98490.38;;;5.31;62.50
40117;BME280;25829;50.228;18.936;2024-01-25T08:35:31;98476.97;;;5.34;62.45
40117;BME280;25829;50.228;18.936;2024-01-25T08:38:32;98460.44;;;5.34;62.47
40117;BME280;25829;50.228;18.936;2024-01-25T08:41:33;98478.44;;;5.29;61.26
40117;BME280;25829;50.228;18.936;2024-01-25T08:44:34;98474.34;;;5.34;61.97
40117;BME280;25829;50.228;18.936;2024-01-25T08:47:35;98465.50;;;5.35;62.11
40117;BME280;25829;50.228;18.936;2024-01-25T08:50:36;98463.69;;;5.36;61.78
40117;BME280;25829;50.228;18.936;2024-01-25T08:53:37;98477.44;;;5.38;61.93
40117;BME280;25829;50.228;18.936;2024-01-25T08:56:38;98472.19;;;5.38;61.59
40117;BME280;25829;50.228;18.936;2024-01-25T08:59:39;98480.03;;;5.38;61.94
40117;BME280;25829;50.228;18.936;2024-01-25T09:02:40;98482.66;;;5.38;61.25
40117;BME280;25829;50.228;18.936;2024-01-25T09:05:42;98472.53;;;5.35;60.80
40117;BME280;25829;50.228;18.936;2024-01-25T09:08:46;98465.34;;;5.37;61.26
40117;BME280;25829;50.228;18.936;2024-01-25T09:11:47;98476.44;;;5.39;61.01
40117;BME280;25829;50.228;18.936;2024-01-25T09:14:47;98470.03;;;5.42;61.39
40117;BME280;25829;50.228;18.936;2024-01-25T09:17:48;98488.00;;;5.45;60.86
40117;BME280;25829;50.228;18.936;2024-01-25T09:20:50;98489.63;;;5.46;61.33
40117;BME280;25829;50.228;18.936;2024-01-25T09:23:51;98497.31;;;5.47;61.01
40117;BME280;25829;50.228;18.936;2024-01-25T09:26:52;98490.44;;;5.46;61.17
40117;BME280;25829;50.228;18.936;2024-01-25T09:29:53;98494.41;;;5.42;60.97
40117;BME280;25829;50.228;18.936;2024-01-25T09:32:54;98493.25;;;5.45;60.42
40117;BME280;25829;50.228;18.936;2024-01-25T09:35:55;98510.56;;;5.46;61.60
40117;BME280;25829;50.228;18.936;2024-01-25T09:38:56;98499.94;;;5.47;60.88
40117;BME280;25829;50.228;18.936;2024-01-25T09:41:57;98496.84;;;5.44;61.62
40117;BME280;25829;50.228;18.936;2024-01-25T09:44:58;98521.22;;;5.44;61.44
40117;BME280;25829;50.228;18.936;2024-01-25T09:47:59;98514.53;;;5.42;61.42
40117;BME280;25829;50.228;18.936;2024-01-25T09:51:00;98508.63;;;5.40;61.52
40117;BME280;25829;50.228;18.936;2024-01-25T09:54:01;98509.28;;;5.42;61.77
40117;BME280;25829;50.228;18.936;2024-01-25T09:57:07;98501.63;;;5.40;61.44
40117;BME280;25829;50.228;18.936;2024-01-25T10:00:09;98509.28;;;5.42;61.32
40117;BME280;25829;50.228;18.936;2024-01-25T10:03:12;98504.53;;;5.45;61.12
40117;BME280;25829;50.228;18.936;2024-01-25T10:06:13;98516.13;;;5.43;60.80
40117;BME280;25829;50.228;18.936;2024-01-25T10:09:15;98524.28;;;5.48;61.64
40117;BME280;25829;50.228;18.936;2024-01-25T10:12:15;98517.06;;;5.50;60.90
40117;BME280;25829;50.228;18.936;2024-01-25T10:15:16;98541.81;;;5.47;60.90
40117;BME280;25829;50.228;18.936;2024-01-25T10:18:17;98519.75;;;5.42;60.88
40117;BME280;25829;50.228;18.936;2024-01-25T10:21:18;98530.22;;;5.42;60.91
40117;BME280;25829;50.228;18.936;2024-01-25T10:24:19;98524.63;;;5.45;61.13
40117;BME280;25829;50.228;18.936;2024-01-25T10:27:19;98529.88;;;5.45;60.81
40117;BME280;25829;50.228;18.936;2024-01-25T10:30:20;98535.75;;;5.47;60.03
40117;BME280;25829;50.228;18.936;2024-01-25T10:33:21;98546.69;;;5.50;60.23
40117;BME280;25829;50.228;18.936;2024-01-25T10:36:44;98538.66;;;5.52;59.62
40117;BME280;25829;50.228;18.936;2024-01-25T10:39:44;98537.50;;;5.54;60.30
40117;BME280;25829;50.228;18.936;2024-01-25T10:42:46;98535.03;;;5.53;59.48
40117;BME280;25829;50.228;18.936;2024-01-25T10:45:47;98542.91;;;5.53;59.66
40117;BME280;25829;50.228;18.936;2024-01-25T10:48:48;98534.88;;;5.54;59.69
40117;BME280;25829;50.228;18.936;2024-01-25T10:51:49;98528.00;;;5.53;59.61
40117;BME280;25829;50.228;18.936;2024-01-25T10:54:50;98547.78;;;5.56;59.63
40117;BME280;25829;50.228;18.936;2024-01-25T10:57:52;98539.13;;;5.55;59.76
40117;BME280;25829;50.228;18.936;2024-01-25T11:00:55;98548.44;;;5.58;59.69
40117;BME280;25829;50.228;18.936;2024-01-25T11:03:56;98563.69;;;5.54;59.76
40117;BME280;25829;50.228;18.936;2024-01-25T11:07:07;98541.75;;;5.55;60.34
40117;BME280;25829;50.228;18.936;2024-01-25T11:10:25;98536.50;;;5.55;60.13
40117;BME280;25829;50.228;18.936;2024-01-25T11:13:27;98527.38;;;5.51;59.54
40117;BME280;25829;50.228;18.936;2024-01-25T11:16:32;98533.63;;;5.50;59.33
40117;BME280;25829;50.228;18.936;2024-01-25T11:19:35;98531.63;;;5.52;60.32
40117;BME280;25829;50.228;18.936;2024-01-25T11:22:36;98555.63;;;5.56;60.01
40117;BME280;25829;50.228;18.936;2024-01-25T11:25:37;98547.78;;;5.56;59.81
40117;BME280;25829;50.228;18.936;2024-01-25T11:28:38;98550.25;;;5.57;59.87
40117;BME280;25829;50.228;18.936;2024-01-25T11:31:39;98546.09;;;5.63;59.23
40117;BME280;25829;50.228;18.936;2024-01-25T11:34:39;98557.09;;;5.58;59.18
40117;BME280;25829;50.228;18.936;2024-01-25T11:37:40;98534.69;;;5.56;59.01
40117;BME280;25829;50.228;18.936;2024-01-25T11:40:41;98558.25;;;5.56;59.43
40117;BME280;25829;50.228;18.936;2024-01-25T11:43:42;98555.81;;;5.54;59.62
40117;BME280;25829;50.228;18.936;2024-01-25T11:46:42;98563.50;;;5.56;60.21
40117;BME280;25829;50.228;18.936;2024-01-25T11:49:43;98576.75;;;5.54;60.53
40117;BME280;25829;50.228;18.936;2024-01-25T11:52:44;98594.88;;;5.56;60.27
40117;BME280;25829;50.228;18.936;2024-01-25T11:55:45;98589.19;;;5.52;61.00
40117;BME280;25829;50.228;18.936;2024-01-25T11:58:46;98576.63;;;5.48;61.19
40117;BME280;25829;50.228;18.936;2024-01-25T12:01:47;98583.47;;;5.49;62.23
40117;BME280;25829;50.228;18.936;2024-01-25T12:04:49;98600.34;;;5.46;62.58
40117;BME280;25829;50.228;18.936;2024-01-25T12:07:50;98601.84;;;5.41;62.76
40117;BME280;25829;50.228;18.936;2024-01-25T12:11:10;98591.38;;;5.41;63.39
40117;BME280;25829;50.228;18.936;2024-01-25T12:14:11;98606.94;;;5.34;62.93
40117;BME280;25829;50.228;18.936;2024-01-25T12:17:12;98597.63;;;5.31;63.44
40117;BME280;25829;50.228;18.936;2024-01-25T12:20:12;98591.59;;;5.31;63.78
40117;BME280;25829;50.228;18.936;2024-01-25T12:23:14;98595.69;;;5.25;64.08
40117;BME280;25829;50.228;18.936;2024-01-25T12:26:14;98604.88;;;5.21;64.06
40117;BME280;25829;50.228;18.936;2024-01-25T12:29:16;98611.56;;;5.24;63.95
40117;BME280;25829;50.228;18.936;2024-01-25T12:32:18;98609.25;;;5.29;63.52
40117;BME280;25829;50.228;18.936;2024-01-25T12:35:19;98623.97;;;5.30;64.00
40117;BME280;25829;50.228;18.936;2024-01-25T12:38:22;98614.13;;;5.32;63.83
40117;BME280;25829;50.228;18.936;2024-01-25T12:41:24;98611.53;;;5.32;63.48
40117;BME280;25829;50.228;18.936;2024-01-25T12:44:25;98631.00;;;5.29;63.69
40117;BME280;25829;50.228;18.936;2024-01-25T12:47:26;98620.88;;;5.26;63.36
40117;BME280;25829;50.228;18.936;2024-01-25T12:50:27;98628.72;;;5.26;64.16
40117;BME280;25829;50.228;18.936;2024-01-25T12:53:27;98621.69;;;5.27;64.04
40117;BME280;25829;50.228;18.936;2024-01-25T12:56:30;98629.53;;;5.27;63.42
40117;BME280;25829;50.228;18.936;2024-01-25T12:59:34;98643.56;;;5.26;63.57
40117;BME280;25829;50.228;18.936;2024-01-25T13:02:35;98643.44;;;5.27;63.51
40117;BME280;25829;50.228;18.936;2024-01-25T13:05:36;98638.19;;;5.27;63.68
40117;BME280;25829;50.228;18.936;2024-01-25T13:08:39;98625.13;;;5.27;63.57
40117;BME280;25829;50.228;18.936;2024-01-25T13:11:41;98627.72;;;5.27;63.84
40117;BME280;25829;50.228;18.936;2024-01-25T13:14:42;98629.06;;;5.23;63.92
40117;BME280;25829;50.228;18.936;2024-01-25T13:17:42;98632.16;;;5.19;64.25
40117;BME280;25829;50.228;18.936;2024-01-25T13:20:45;98642.00;;;5.17;64.32
40117;BME280;25829;50.228;18.936;2024-01-25T13:23:46;98634.16;;;5.17;64.18
40117;BME280;25829;50.228;18.936;2024-01-25T13:26:47;98651.13;;;5.21;64.42
40117;BME280;25829;50.228;18.936;2024-01-25T13:29:48;98630.88;;;5.15;64.16
40117;BME280;25829;50.228;18.936;2024-01-25T13:32:49;98641.19;;;5.16;63.90
40117;BME280;25829;50.228;18.936;2024-01-25T13:35:50;98646.22;;;5.18;63.84
40117;BME280;25829;50.228;18.936;2024-01-25T13:38:51;98648.22;;;5.16;63.70
40117;BME280;25829;50.228;18.936;2024-01-25T13:41:51;98643.63;;;5.18;63.83
40117;BME280;25829;50.228;18.936;2024-01-25T13:44:52;98638.53;;;5.24;63.50
40117;BME280;25829;50.228;18.936;2024-01-25T13:47:53;98647.84;;;5.27;63.50
40117;BME280;25829;50.228;18.936;2024-01-25T13:50:54;98654.56;;;5.29;63.69
40117;BME280;25829;50.228;18.936;2024-01-25T13:53:54;98647.50;;;5.30;63.54
40117;BME280;25829;50.228;18.936;2024-01-25T13:56:55;98644.56;;;5.33;63.79
40117;BME280;25829;50.228;18.936;2024-01-25T13:59:56;98650.94;;;5.30;63.46
40117;BME280;25829;50.228;18.936;2024-01-25T14:02:57;98649.31;;;5.29;63.03
40117;BME280;25829;50.228;18.936;2024-01-25T14:05:57;98656.50;;;5.27;63.04
40117;BME280;25829;50.228;18.936;2024-01-25T14:08:58;98651.09;;;5.29;63.21
40117;BME280;25829;50.228;18.936;2024-01-25T14:11:59;98661.88;;;5.26;62.70
40117;BME280;25829;50.228;18.936;2024-01-25T14:15:00;98671.53;;;5.25;63.02
40117;BME280;25829;50.228;18.936;2024-01-25T14:18:01;98672.34;;;5.26;62.89
40117;BME280;25829;50.228;18.936;2024-01-25T14:21:01;98675.47;;;5.21;63.46
40117;BME280;25829;50.228;18.936;2024-01-25T14:24:02;98690.19;;;5.22;62.74
40117;BME280;25829;50.228;18.936;2024-01-25T14:27:03;98682.00;;;5.25;62.40
40117;BME280;25829;50.228;18.936;2024-01-25T14:30:05;98687.22;;;5.25;62.55
40117;BME280;25829;50.228;18.936;2024-01-25T14:33:07;98699.34;;;5.26;62.17
40117;BME280;25829;50.228;18.936;2024-01-25T14:36:08;98686.91;;;5.28;61.82
40117;BME280;25829;50.228;18.936;2024-01-25T14:39:08;98684.28;;;5.28;61.86
40117;BME280;25829;50.228;18.936;2024-01-25T14:42:10;98695.09;;;5.25;61.89
40117;BME280;25829;50.228;18.936;2024-01-25T14:45:16;98703.44;;;5.21;61.22
40117;BME280;25829;50.228;18.936;2024-01-25T14:48:17;98704.25;;;5.21;61.24
40117;BME280;25829;50.228;18.936;2024-01-25T14:51:18;98698.50;;;5.26;61.86
40117;BME280;25829;50.228;18.936;2024-01-25T14:54:20;98695.91;;;5.26;61.29
40117;BME280;25829;50.228;18.936;2024-01-25T14:57:21;98713.25;;;5.27;61.66
40117;BME280;25829;50.228;18.936;2024-01-25T15:00:21;98712.25;;;5.28;61.15
40117;BME280;25829;50.228;18.936;2024-01-25T15:03:23;98696.75;;;5.26;61.16
40117;BME280;25829;50.228;18.936;2024-01-25T15:06:23;98693.97;;;5.20;61.05
40117;BME280;25829;50.228;18.936;2024-01-25T15:09:24;98701.16;;;5.18;61.78
40117;BME280;25829;50.228;18.936;2024-01-25T15:12:25;98711.81;;;5.16;61.67
40117;BME280;25829;50.228;18.936;2024-01-25T15:15:26;98720.78;;;5.13;61.58
40117;BME280;25829;50.228;18.936;2024-01-25T15:18:28;98708.53;;;5.14;61.59
40117;BME280;25829;50.228;18.936;2024-01-25T15:21:29;98726.81;;;5.14;61.49
40117;BME280;25829;50.228;18.936;2024-01-25T15:24:29;98717.50;;;5.11;61.59
40117;BME280;25829;50.228;18.936;2024-01-25T15:27:32;98714.56;;;5.15;61.90
40117;BME280;25829;50.228;18.936;2024-01-25T15:30:33;98727.81;;;5.13;61.14
40117;BME280;25829;50.228;18.936;2024-01-25T15:33:34;98729.44;;;5.14;60.81
40117;BME280;25829;50.228;18.936;2024-01-25T15:36:34;98731.25;;;5.13;60.73
40117;BME280;25829;50.228;18.936;2024-01-25T15:39:36;98746.63;;;5.17;61.45
40117;BME280;25829;50.228;18.936;2024-01-25T15:42:37;98749.56;;;5.13;61.13
40117;BME280;25829;50.228;18.936;2024-01-25T15:45:38;98766.72;;;5.16;60.72
40117;BME280;25829;50.228;18.936;2024-01-25T15:48:39;98766.25;;;5.12;60.50
40117;BME280;25829;50.228;18.936;2024-01-25T15:51:40;98774.91;;;5.13;61.00
40117;BME280;25829;50.228;18.936;2024-01-25T15:54:40;98767.03;;;5.13;61.04
40117;BME280;25829;50.228;18.936;2024-01-25T15:57:41;98780.28;;;5.11;60.87
40117;BME280;25829;50.228;18.936;2024-01-25T16:00:42;98773.91;;;5.06;60.65